• Join FlightAware (Why Join?)
  • Login
  • US Flag 
11:11PM EDT


 

Airport Tracker/Info


-or-


 

Live Flight TrackerFlight Track Log ✈ AAY876 ✈ 22-Apr-2014 ✈ KPIE - KRFD

Flight Track Log - Related Links

Times and Time Zones

All times are in EDT time to prevent confusion due to time zone crossing. See the AAY876 flight status page for this flight to view local times or setup timezone preferences in your user account.

Time Position Orientation Groundspeed Altitude Reporting Facility
EDT Latitude Longitude Course Direction KTS MPH feet Rate Location/Type
02:44PM 27.9333 -82.6833 16° North 172 198 700  Level Tampa TRACON
02:45PM 27.9833 -82.6667 16° North 234 269 2,000 1,140 Climbing Tampa TRACON
02:47PM 28.1164 -82.7205 349° North  Level FlightAware Approximate
02:47PM 28.1164 -82.6950 349° North 268 308 4,300  Level Jacksonville Center
02:48PM 28.1936 -82.7111 350° North 268 308 7,400 3,000 Climbing Jacksonville Center
02:49PM 28.2689 -82.7275 349° North 268 308 10,300 1,980 Climbing Jacksonville Center
02:50PM 28.3544 -82.7511 346° North 284 327 11,400 1,260 Climbing Jacksonville Center
02:51PM 28.4586 -82.7722 350° North 332 382 12,900 1,860 Climbing Jacksonville Center
02:52PM 28.5694 -82.8003 347° North 378 435 15,200 2,220 Climbing Jacksonville Center
02:53PM 28.6800 -82.8264 348° North 400 460 17,400 1,980 Climbing Jacksonville Center
02:54PM 28.7947 -82.8569 347° North 405 466 19,200 1,680 Climbing Jacksonville Center
02:55PM 28.9117 -82.8831 349° North 416 479 20,800 1,620 Climbing Jacksonville Center
02:56PM 29.0328 -82.9117 348° North 427 491 22,500 1,440 Climbing Jacksonville Center
02:57PM 29.1600 -82.9400 349° North 446 513 23,700 1,860 Climbing Jacksonville Center
02:58PM 29.2831 -82.9736 347° North 451 519 26,300 2,160 Climbing Jacksonville Center
02:59PM 29.4022 -82.9997 349° North 446 513 28,100 1,260 Climbing Jacksonville Center
03:00PM 29.5106 -83.0333 345° North 435 501 28,900 1,020 Climbing Jacksonville Center
03:01PM 29.6317 -83.0647 347° North 440 506 30,200 1,080 Climbing Jacksonville Center
03:02PM 29.7381 -83.1175 337° Northwest 433 498 31,100 900 Climbing Jacksonville Center
03:03PM 29.8508 -83.1656 340° North 427 491 32,000 420 Climbing Jacksonville Center
03:04PM 29.9614 -83.2211 336° Northwest 422 486 32,000  Level Jacksonville Center
03:05PM 30.0739 -83.2694 340° North 422 486 32,000  Level Jacksonville Center
03:06PM 30.1822 -83.3228 337° Northwest 427 491 32,000  Level Jacksonville Center
03:07PM 30.2969 -83.3714 340° North 427 491 32,000  Level Jacksonville Center
03:08PM 30.4053 -83.4272 336° Northwest 432 497 32,000  Level Jacksonville Center
03:09PM 30.5178 -83.4761 339° North 432 497 32,000  Level Jacksonville Center
03:10PM 30.6242 -83.5322 336° Northwest 432 497 32,000  Level Jacksonville Center
03:11PM 30.7469 -83.5864 339° North 426 490 32,000  Level Jacksonville Center
03:12PM 30.8531 -83.6403 336° Northwest 421 484 32,000  Level Jacksonville Center
03:13PM 30.9656 -83.6872 340° North 421 484 32,000  Level Jacksonville Center
03:14PM 31.0717 -83.7464 334° Northwest 421 484 32,000  Level Jacksonville Center
03:15PM 31.1842 -83.7958 339° North 421 484 32,000  Level Jacksonville Center
03:18PM 31.4294 -83.9147 338° Northwest 433 498 32,000  Level Atlanta Center
03:19PM 31.5400 -83.9683 338° Northwest 433 498 32,000  Level Atlanta Center
03:20PM 31.6631 -83.9925 351° North 433 498 32,000  Level Atlanta Center
03:21PM 31.7947 -84.0242 348° North 433 498 32,000  Level Atlanta Center
03:22PM 31.9178 -84.0486 350° North 439 505 32,000  Level Atlanta Center
03:23PM 32.0347 -84.0781 348° North 439 505 32,000  Level Atlanta Center
03:24PM 32.1558 -84.0978 352° North 434 499 32,000  Level Atlanta Center
03:25PM 32.2767 -84.1297 347° North 434 499 32,000  Level Atlanta Center
03:26PM 32.3997 -84.1544 350° North 434 499 32,000  Level Atlanta Center
03:27PM 32.5189 -84.1867 347° North 434 499 32,000  Level Atlanta Center
03:28PM 32.6397 -84.2067 352° North 429 494 32,000  Level Atlanta Center
03:29PM 32.7567 -84.2414 346° North 429 494 32,000  Level Atlanta Center
03:30PM 32.8672 -84.2614 351° North 429 494 32,000  Level Atlanta Center
03:31PM 32.9842 -84.2939 347° North 429 494 32,000 300 Level Atlanta Center
03:32PM 33.1156 -84.3192 351° North 429 494 32,600 480 Climbing Atlanta Center
03:33PM 33.2344 -84.3492 348° North 436 502 33,000 180 Climbing Atlanta Center
03:34PM 33.3533 -84.3744 350° North 434 499 33,000  Level Atlanta Center
03:35PM 33.4722 -84.4050 348° North 434 499 33,000  Level Atlanta Center
03:36PM 33.5911 -84.4278 351° North 434 499 33,000  Level Atlanta Center
03:37PM 33.6997 -84.4558 348° North 431 496 33,000 420 Level Atlanta Center
03:38PM 33.8164 -84.4814 350° North 431 496 33,900 480 Climbing Atlanta Center
03:39PM 33.9289 -84.5144 346° North 423 487 34,000  Climbing Atlanta Center
03:40PM 34.0667 -84.5403 351° North 436 502 34,000  Level Atlanta Center
03:41PM 34.1897 -84.5736 347° North 441 507 34,000  Level Atlanta Center
03:42PM 34.3086 -84.6022 349° North 441 507 34,000  Level Atlanta Center
03:43PM 34.4272 -84.6306 349° North 436 502 34,000  Level Atlanta Center
03:44PM 34.5461 -84.6592 349° North 431 496 34,000  Level Atlanta Center
03:45PM 34.6628 -84.6853 350° North 426 490 34,000  Level Atlanta Center
03:46PM 34.7753 -84.7164 347° North 419 482 34,000  Level Atlanta Center
03:47PM 34.8942 -84.7478 348° North 419 482 34,000  Level Atlanta Center
03:48PM 35.0108 -84.7792 348° North 429 494 34,000  Level Atlanta Center
03:49PM 35.1297 -84.8083 349° North 429 494 34,000  Level Atlanta Center
03:50PM 35.2442 -84.8372 348° North 429 494 34,000  Level Atlanta Center
03:51PM 35.3631 -84.8639 350° North 429 494 34,000  Level Atlanta Center
03:52PM 35.4775 -84.8956 347° North 429 494 34,000  Level Atlanta Center
03:53PM 35.5983 -84.9225 350° North 430 495 34,000  Level Atlanta Center
03:55PM 35.8519 -84.9872 348° North 431 496 34,000  Level Indianapolis Center
03:56PM 35.9706 -85.0208 347° North 431 496 34,000  Level Indianapolis Center
03:57PM 36.0811 -85.0419 351° North 435 501 34,000  Level Indianapolis Center
03:58PM 36.2206 -85.0839 346° North 429 494 34,000  Level Indianapolis Center
03:59PM 36.3383 -85.1097 350° North 429 494 34,000  Level Indianapolis Center
04:00PM 36.4517 -85.1431 347° North 423 487 34,000  Level Indianapolis Center
04:01PM 36.5656 -85.1678 350° North 421 484 34,000  Level Indianapolis Center
04:02PM 36.6736 -85.2139 341° North 410 472 34,000  Level Indianapolis Center
04:03PM 36.7822 -85.2619 340° North 411 473 34,000  Level Indianapolis Center
04:04PM 36.8894 -85.3078 341° North 410 472 34,000  Level Indianapolis Center
04:05PM 37.0181 -85.3619 341° North 409 471 34,000  Level Indianapolis Center
04:06PM 37.1169 -85.4128 338° Northwest 392 451 34,000  Level Indianapolis Center
04:07PM 37.2172 -85.4542 342° North 383 441 34,000  Level Indianapolis Center
04:08PM 37.3175 -85.5033 339° North 383 441 34,000 60 Level Indianapolis Center
04:09PM 37.4250 -85.5467 342° North 387 445 34,200  Climbing Indianapolis Center
04:10PM 37.5256 -85.5967 338° Northwest 391 450 34,000 -120 Descending Indianapolis Center
04:12PM 37.6239 -85.6392 341° North 378 435 34,000  Level Indianapolis Center
04:13PM 37.7228 -85.6914 337° Northwest 382 440 34,000  Level Indianapolis Center
04:14PM 37.8439 -85.7439 341° North 381 438 34,000  Level Indianapolis Center
04:15PM 37.9433 -85.7958 338° Northwest 383 441 34,000  Level Indianapolis Center
04:16PM 38.0428 -85.8383 341° North 381 438 34,000  Level Indianapolis Center
04:17PM 38.1428 -85.8897 338° Northwest 385 443 34,000  Level Indianapolis Center
04:18PM 38.2433 -85.9319 342° North 384 442 34,000  Level Indianapolis Center
04:19PM 38.3417 -85.9847 337° Northwest 384 442 34,000  Level Indianapolis Center
04:20PM 38.4606 -86.0344 342° North 379 436 34,000  Level Indianapolis Center
04:21PM 38.5575 -86.0878 337° Northwest 379 436 34,000  Level Indianapolis Center
04:22PM 38.6592 -86.1303 342° North 379 436 34,000  Level Indianapolis Center
04:23PM 38.7544 -86.1819 337° Northwest 378 435 34,000  Level Indianapolis Center
04:24PM 38.8522 -86.2233 342° North 375 432 34,000  Level Indianapolis Center
04:25PM 38.9539 -86.2806 336° Northwest 367 422 34,000  Level Indianapolis Center
04:26PM 39.0492 -86.3192 343° North 363 418 34,000  Level Indianapolis Center
04:27PM 39.1408 -86.3697 337° Northwest 362 417 34,000  Level Indianapolis Center
04:28PM 39.2353 -86.4092 342° North 361 415 34,000  Level Indianapolis Center
04:29PM 39.3458 -86.4694 337° Northwest 359 413 34,000  Level Indianapolis Center
04:30PM 39.4411 -86.5100 342° North 359 413 34,000  Level Indianapolis Center
04:31PM 39.5331 -86.5600 337° Northwest 359 413 34,000  Level Indianapolis Center
04:32PM 39.6281 -86.6008 342° North 358 412 34,000  Level Indianapolis Center
04:33PM 39.7181 -86.6528 336° Northwest 354 407 34,000  Level Indianapolis Center
04:34PM 39.8128 -86.6919 342° North 354 407 34,000  Level Indianapolis Center
04:35PM 39.9033 -86.7450 336° Northwest 354 407 34,000  Level Indianapolis Center
04:36PM 40.0153 -86.7958 341° North 354 407 34,000  Level Indianapolis Center
04:37PM 40.1031 -86.8547 333° Northwest 354 407 34,000  Level Indianapolis Center
04:38PM 40.1639 -86.9569 308° West 350 403 34,000 -180 Level Chicago Center
04:39PM 40.2342 -87.0461 316° Northwest 353 406 33,700 -480 Descending Chicago Center
04:41PM 40.2978 -87.1419 311° West 351 404 33,100 -660 Descending Chicago Center
04:42PM 40.3653 -87.2342 314° West 350 403 32,400 -780 Descending Chicago Center
04:43PM 40.4386 -87.3561 308° West 353 406 31,600 -720 Descending Chicago Center
04:44PM 40.5025 -87.4433 314° West 354 407 30,900 -720 Descending Chicago Center
04:45PM 40.5650 -87.5436 309° West 354 407 30,200 -480 Descending Chicago Center
04:46PM 40.6461 -87.6614 312° West 357 411 30,000 -120 Descending Chicago Center
04:47PM 40.7097 -87.7631 310° West 357 411 30,000  Level Chicago Center
04:48PM 40.7783 -87.8600 313° West 358 412 30,000  Level Chicago Center
04:49PM 40.8414 -87.9644 309° West 360 414 30,000 -300 Level Chicago Center
04:50PM 40.9103 -88.0619 313° West 361 415 29,400 -720 Descending Chicago Center
04:51PM 40.9742 -88.1656 309° West 361 415 28,600 -960 Descending Chicago Center
04:52PM 41.0433 -88.2669 312° West 364 419 27,500 -1,140 Descending Chicago Center
04:53PM 41.1217 -88.3964 309° West 372 428 26,300 -1,080 Descending Chicago Center
04:54PM 41.1906 -88.4933 313° West 365 420 25,300 -960 Descending Chicago Center
04:55PM 41.2508 -88.5950 308° West 356 410 24,400 -720 Descending Chicago Center
04:56PM 41.3172 -88.6875 314° West 348 400 23,900 -780 Descending Chicago Center
04:57PM 41.3742 -88.7903 306° West 347 399 22,800 -1,140 Descending Chicago Center
04:58PM 41.4394 -88.8825 313° West 346 398 21,600 -1,920 Descending Chicago Center
04:59PM 41.5103 -89.0000 309° West 341 392 18,900 -2,520 Descending Chicago Center
05:00PM 41.5725 -89.0961 311° West 341 392 16,400 -2,400 Descending Chicago Center
05:01PM 41.6308 -89.1922 309° West 339 390 13,900 -1,680 Descending Chicago Center
05:02PM 41.6917 -89.2758 314° West 316 364 13,000 -720 Descending Chicago Center
05:03PM 41.7631 -89.2744 North 278 320 12,500 -1,260 Descending Chicago Center
05:04PM 41.8364 -89.2433 18° North 277 319 10,500 -2,520 Descending Chicago Center
05:05PM 41.9208 -89.2167 13° North 266 306 7,300 -2,760 Descending Chicago Center
05:06PM 41.9814 -89.1778 26° Northeast 244 281 4,800 -1,920 Descending Chicago Center
05:07PM 42.0411 -89.1442 23° Northeast 238 274 3,400 -1,020 Descending Chicago Center
05:08PM 42.0894 -89.1125 26° Northeast 220 253 2,700 -480 Descending Chicago Center
05:09PM 42.1375 -89.0819 25° Northeast 216 249 2,500 -240 Descending Chicago Center
05:11PM 42.1833 -89.0833 14° North  Level FlightAware Approximate